Time;durP1;ratioP1;P1;durP2;ratioP2;P2;SDS_P1;SDS_P2;PMS_P1;PMS_P2;Temp;Humidity;BMP_temperature;BMP_pressure;BME280_temperature;BME280_humidity;BME280_pressure;Samples;Min_cycle;Max_cycle;Signal;HPM_P1;HPM_P2
2023/04/13 00:00:59;;;;;;;1.13;0.90;;;7.10;99.90;;;;;;5059689;28;20015;-58
2023/04/13 00:03:26;;;;;;;1.40;0.82;;;7.10;99.90;;;;;;5062636;28;20035;-58
2023/04/13 00:05:52;;;;;;;2.13;1.25;;;7.10;99.90;;;;;;5061813;28;20056;-59
2023/04/13 00:08:21;;;;;;;1.48;1.10;;;7.10;99.90;;;;;;5058020;28;20029;-59
2023/04/13 00:10:47;;;;;;;1.08;1.00;;;7.10;99.90;;;;;;5056377;28;20066;-57
2023/04/13 00:13:13;;;;;;;1.00;0.90;;;7.00;99.90;;;;;;5059048;28;20017;-57
2023/04/13 00:15:42;;;;;;;1.25;1.15;;;7.00;99.90;;;;;;5061588;28;20025;-56
2023/04/13 00:18:09;;;;;;;2.05;1.00;;;7.00;99.90;;;;;;5057693;28;20041;-57
2023/04/13 00:20:35;;;;;;;2.15;1.02;;;7.00;99.90;;;;;;5060892;28;20033;-58
2023/04/13 00:23:01;;;;;;;3.13;1.17;;;7.00;99.90;;;;;;5059604;28;20037;-59
2023/04/13 00:25:28;;;;;;;1.73;0.93;;;7.00;99.90;;;;;;5060123;28;20035;-57
2023/04/13 00:27:53;;;;;;;2.40;1.33;;;7.00;99.90;;;;;;5066291;28;20028;-59
2023/04/13 00:30:20;;;;;;;2.70;1.80;;;6.90;99.90;;;;;;5059823;28;20037;-58
2023/04/13 00:32:47;;;;;;;1.77;1.38;;;6.90;99.90;;;;;;5057217;28;20033;-58
2023/04/13 00:35:18;;;;;;;1.90;1.40;;;6.90;99.90;;;;;;5060949;28;20112;-58
2023/04/13 00:37:47;;;;;;;2.28;2.08;;;6.80;99.90;;;;;;5058246;28;20070;-57
2023/04/13 00:40:15;;;;;;;2.38;1.70;;;6.80;99.90;;;;;;5060348;28;20025;-56
2023/04/13 00:42:43;;;;;;;1.10;1.00;;;6.80;99.90;;;;;;5057101;28;20040;-57
2023/04/13 00:45:10;;;;;;;1.83;0.95;;;6.90;99.90;;;;;;5059409;28;20040;-57
2023/04/13 00:47:36;;;;;;;1.58;0.70;;;7.00;99.90;;;;;;5061157;28;20108;-58
2023/04/13 00:50:10;;;;;;;0.70;0.70;;;7.00;99.90;;;;;;5060312;28;20587;-57
2023/04/13 00:52:39;;;;;;;0.98;0.63;;;7.00;99.90;;;;;;5060549;28;20029;-58
2023/04/13 00:55:06;;;;;;;0.65;0.57;;;7.00;99.90;;;;;;5060308;28;20083;-58
2023/04/13 00:57:33;;;;;;;1.67;0.50;;;7.00;99.90;;;;;;5058185;28;20088;-59
2023/04/13 01:00:00;;;;;;;0.70;0.57;;;7.00;99.90;;;;;;5055950;28;20733;-56
2023/04/13 01:02:25;;;;;;;1.30;0.60;;;7.00;99.90;;;;;;5059702;28;20029;-56
2023/04/13 01:04:55;;;;;;;0.50;0.50;;;7.00;99.90;;;;;;5059590;28;20116;-58
2023/04/13 01:07:41;;;;;;;0.70;0.50;;;6.90;99.90;;;;;;5059811;28;20024;-57
2023/04/13 01:10:10;;;;;;;1.75;0.50;;;6.90;99.90;;;;;;5059668;28;20504;-56
2023/04/13 01:12:45;;;;;;;1.38;0.50;;;6.90;99.90;;;;;;5060722;28;20513;-57
2023/04/13 01:15:13;;;;;;;0.60;0.60;;;6.90;99.90;;;;;;5056303;28;20033;-57
2023/04/13 01:17:43;;;;;;;1.60;0.57;;;6.90;99.90;;;;;;5056812;28;20029;-58
2023/04/13 01:20:10;;;;;;;0.85;0.43;;;6.90;99.90;;;;;;5059316;28;20059;-58
2023/04/13 01:22:40;;;;;;;0.32;0.32;;;6.90;99.90;;;;;;5061639;28;20028;-58
2023/04/13 01:25:29;;;;;;;0.52;0.50;;;6.90;99.90;;;;;;5057450;28;20493;-57
2023/04/13 01:28:00;;;;;;;1.58;0.60;;;6.80;99.90;;;;;;5059719;28;20071;-59
2023/04/13 01:30:27;;;;;;;0.85;0.50;;;6.80;99.90;;;;;;5053621;28;20527;-58
2023/04/13 01:32:54;;;;;;;0.50;0.50;;;6.80;99.90;;;;;;5036743;28;20408;-56
2023/04/13 01:35:21;;;;;;;1.38;0.60;;;6.80;99.90;;;;;;5063850;28;20028;-58
2023/04/13 01:37:49;;;;;;;1.45;0.60;;;6.70;99.90;;;;;;5056678;28;20036;-57
2023/04/13 01:40:14;;;;;;;1.52;0.63;;;6.70;99.90;;;;;;5058991;28;20024;-58
2023/04/13 01:42:41;;;;;;;1.35;0.60;;;6.60;99.90;;;;;;5059078;28;20039;-58
2023/04/13 01:45:45;;;;;;;1.35;0.73;;;6.50;99.90;;;;;;5059242;28;20712;-57
2023/04/13 01:48:25;;;;;;;2.85;0.50;;;6.40;99.90;;;;;;5049649;28;20045;-58
2023/04/13 01:51:07;;;;;;;2.22;0.80;;;6.40;99.90;;;;;;5047148;28;20037;-58
2023/04/13 01:53:45;;;;;;;0.88;0.50;;;6.40;99.90;;;;;;5039747;28;20040;-59
2023/04/13 01:56:14;;;;;;;1.60;0.70;;;6.30;99.90;;;;;;5037441;28;20103;-57
2023/04/13 01:58:40;;;;;;;3.13;0.60;;;6.30;99.90;;;;;;5039866;28;20025;-58
2023/04/13 02:01:06;;;;;;;0.95;0.60;;;6.30;99.90;;;;;;5041882;28;20087;-58
2023/04/13 02:03:33;;;;;;;0.60;0.55;;;6.20;99.90;;;;;;5036086;28;20114;-58
2023/04/13 02:06:01;;;;;;;0.75;0.65;;;6.30;99.90;;;;;;5055728;28;20413;-59
2023/04/13 02:08:28;;;;;;;1.02;0.57;;;6.20;99.90;;;;;;5068021;28;20097;-58
2023/04/13 02:10:54;;;;;;;1.42;0.60;;;6.20;99.90;;;;;;5064190;28;20045;-59
2023/04/13 02:13:19;;;;;;;1.30;0.60;;;6.30;99.90;;;;;;5065020;28;20512;-58
2023/04/13 02:15:45;;;;;;;1.10;0.68;;;6.30;99.90;;;;;;5066510;28;20101;-58
2023/04/13 02:18:12;;;;;;;1.33;0.63;;;6.20;99.90;;;;;;5065567;28;20105;-58
2023/04/13 02:20:42;;;;;;;1.10;0.80;;;6.10;99.90;;;;;;5061578;28;20037;-57
2023/04/13 02:23:08;;;;;;;0.50;0.50;;;6.10;99.90;;;;;;5062407;28;20968;-58
2023/04/13 02:25:34;;;;;;;0.88;0.80;;;6.00;99.90;;;;;;5063319;28;20037;-58
2023/04/13 02:28:00;;;;;;;1.20;0.70;;;5.90;99.90;;;;;;5062002;28;20476;-58
2023/04/13 02:30:26;;;;;;;1.13;0.68;;;5.80;99.90;;;;;;5061053;28;20040;-57
2023/04/13 02:32:52;;;;;;;1.00;0.60;;;5.80;99.90;;;;;;5059083;28;20021;-57
2023/04/13 02:35:19;;;;;;;0.90;0.65;;;5.70;99.90;;;;;;5063611;28;20033;-58
2023/04/13 02:37:45;;;;;;;2.95;0.77;;;5.70;99.90;;;;;;5063158;28;20400;-58
2023/04/13 02:40:11;;;;;;;2.58;0.90;;;5.60;99.90;;;;;;5061077;28;20028;-58
2023/04/13 02:42:38;;;;;;;2.33;1.10;;;5.60;99.90;;;;;;5063077;28;20037;-56
2023/04/13 02:45:06;;;;;;;1.35;0.80;;;5.60;99.90;;;;;;5060755;28;20036;-56
2023/04/13 02:47:32;;;;;;;1.13;0.90;;;5.60;99.90;;;;;;5061750;28;20094;-56
2023/04/13 02:50:00;;;;;;;1.38;0.82;;;5.60;99.90;;;;;;5062110;28;20036;-58
2023/04/13 02:52:26;;;;;;;0.75;0.73;;;5.60;99.90;;;;;;5058454;28;20020;-57
2023/04/13 02:54:53;;;;;;;1.40;0.80;;;5.60;99.90;;;;;;5060848;28;20031;-58
2023/04/13 02:57:22;;;;;;;2.25;0.80;;;5.50;99.90;;;;;;5059692;28;20041;-56
2023/04/13 02:59:48;;;;;;;1.27;1.15;;;5.50;99.90;;;;;;5062744;28;20028;-58
2023/04/13 03:02:14;;;;;;;2.97;0.73;;;5.50;99.90;;;;;;5064117;28;21715;-58
2023/04/13 03:04:40;;;;;;;1.45;1.00;;;5.50;99.90;;;;;;5059238;28;25236;-58
2023/04/13 03:07:09;;;;;;;2.05;0.90;;;5.50;99.90;;;;;;5063444;28;20485;-58
2023/04/13 03:09:38;;;;;;;1.38;1.10;;;5.40;99.90;;;;;;5059854;28;20126;-58
2023/04/13 03:12:06;;;;;;;2.65;0.80;;;5.30;99.90;;;;;;5060710;28;20059;-58
2023/04/13 03:14:32;;;;;;;2.70;0.82;;;5.20;99.90;;;;;;5061001;28;20029;-58
2023/04/13 03:16:57;;;;;;;1.13;1.00;;;5.10;99.90;;;;;;5062232;28;20112;-58
2023/04/13 03:19:25;;;;;;;1.85;1.13;;;5.00;99.90;;;;;;5068449;28;20103;-57
2023/04/13 03:21:51;;;;;;;1.92;1.40;;;5.00;99.90;;;;;;5061613;28;20029;-58
2023/04/13 03:24:17;;;;;;;4.55;1.42;;;4.90;99.90;;;;;;5060852;28;20040;-57
2023/04/13 03:26:42;;;;;;;2.80;1.67;;;4.90;99.90;;;;;;5062433;28;20060;-57
2023/04/13 03:29:08;;;;;;;6.35;1.90;;;4.90;99.90;;;;;;5058670;28;20029;-58
2023/04/13 03:31:33;;;;;;;4.80;1.77;;;4.90;99.90;;;;;;5057516;28;20125;-58
2023/04/13 03:33:59;;;;;;;2.50;1.90;;;4.90;99.90;;;;;;5059644;28;20103;-57
2023/04/13 03:36:28;;;;;;;2.20;1.98;;;5.00;99.90;;;;;;5061724;28;20035;-58
2023/04/13 03:38:55;;;;;;;7.68;2.28;;;5.00;99.90;;;;;;5059852;28;20028;-58
2023/04/13 03:41:22;;;;;;;6.00;2.78;;;5.10;99.90;;;;;;5063709;28;20104;-58
2023/04/13 03:43:48;;;;;;;4.40;2.47;;;5.10;99.90;;;;;;5063427;28;20032;-56
2023/04/13 03:46:14;;;;;;;2.58;2.03;;;5.20;99.90;;;;;;5063331;28;20029;-57
2023/04/13 03:48:40;;;;;;;3.33;1.77;;;5.20;99.90;;;;;;5060995;28;20035;-56
2023/04/13 03:51:06;;;;;;;2.67;1.70;;;5.20;99.90;;;;;;5060030;28;20041;-58
2023/04/13 03:53:35;;;;;;;3.88;1.90;;;5.10;99.90;;;;;;5061790;28;20036;-58
2023/04/13 03:56:00;;;;;;;2.72;1.80;;;5.10;99.90;;;;;;5062424;28;20029;-56
2023/04/13 03:58:26;;;;;;;3.55;2.30;;;5.00;99.90;;;;;;5058527;28;20090;-56
2023/04/13 04:00:52;;;;;;;2.67;1.92;;;4.90;99.90;;;;;;5058488;28;20029;-56
2023/04/13 04:03:17;;;;;;;3.38;1.80;;;4.90;99.90;;;;;;5059117;28;20086;-57
2023/04/13 04:05:43;;;;;;;1.70;1.50;;;4.80;99.90;;;;;;5060554;28;20029;-58
2023/04/13 04:08:09;;;;;;;2.60;1.70;;;4.80;99.90;;;;;;5058950;28;20039;-57
2023/04/13 04:10:35;;;;;;;5.35;1.60;;;4.80;99.90;;;;;;5058131;28;20025;-58
2023/04/13 04:13:00;;;;;;;3.03;1.50;;;4.70;99.90;;;;;;5061171;28;20012;-58
2023/04/13 04:15:26;;;;;;;2.85;1.65;;;4.70;99.90;;;;;;5061318;28;20029;-57
2023/04/13 04:17:51;;;;;;;4.75;1.40;;;4.60;99.90;;;;;;5060418;28;20020;-57
2023/04/13 04:20:17;;;;;;;2.60;1.23;;;4.70;99.90;;;;;;5064076;28;20029;-56
2023/04/13 04:22:46;;;;;;;2.05;1.30;;;4.70;99.90;;;;;;5058559;28;20393;-57
2023/04/13 04:25:20;;;;;;;2.25;1.45;;;4.70;99.90;;;;;;5061543;28;20558;-56
2023/04/13 04:27:48;;;;;;;1.52;1.30;;;4.70;99.90;;;;;;5040784;28;20049;-57
2023/04/13 04:30:14;;;;;;;4.15;1.42;;;4.70;99.90;;;;;;5037303;28;20036;-58
2023/04/13 04:32:40;;;;;;;2.25;1.25;;;4.60;99.90;;;;;;5040624;28;20397;-57
2023/04/13 04:35:07;;;;;;;2.58;1.50;;;4.60;99.90;;;;;;5040539;28;20116;-56
2023/04/13 04:37:36;;;;;;;2.65;1.27;;;4.60;99.90;;;;;;5039796;28;20025;-58
2023/04/13 04:40:12;;;;;;;3.25;1.48;;;4.60;99.90;;;;;;5037889;28;20146;-58
2023/04/13 04:42:38;;;;;;;6.70;2.08;;;4.60;99.90;;;;;;5039686;28;20025;-57
2023/04/13 04:45:05;;;;;;;1.63;1.33;;;4.60;99.90;;;;;;5040293;28;20025;-58
2023/04/13 04:47:31;;;;;;;2.28;2.08;;;4.60;99.90;;;;;;5040765;28;20413;-58
2023/04/13 04:49:58;;;;;;;2.35;1.60;;;4.60;99.90;;;;;;5041352;28;20040;-58
2023/04/13 04:52:26;;;;;;;3.03;1.63;;;4.60;99.90;;;;;;5039872;28;20028;-58
2023/04/13 04:54:52;;;;;;;1.88;1.42;;;4.70;99.90;;;;;;5036038;28;20086;-58
2023/04/13 04:57:18;;;;;;;1.80;1.20;;;4.80;99.90;;;;;;5038075;28;20890;-58
2023/04/13 04:59:44;;;;;;;1.20;1.10;;;4.90;99.90;;;;;;5038592;28;20040;-58
2023/04/13 05:02:10;;;;;;;1.98;0.90;;;4.90;99.90;;;;;;5038425;28;20025;-56
2023/04/13 05:04:38;;;;;;;2.28;1.10;;;5.00;99.90;;;;;;5037080;28;20028;-58
2023/04/13 05:07:04;;;;;;;7.72;1.02;;;5.00;99.90;;;;;;5036125;28;20402;-58
2023/04/13 05:09:30;;;;;;;2.70;0.70;;;5.10;99.90;;;;;;5038547;28;20033;-58
2023/04/13 05:11:56;;;;;;;1.88;0.90;;;5.20;99.90;;;;;;5037221;28;20032;-59
2023/04/13 05:14:22;;;;;;;3.38;1.15;;;5.20;99.90;;;;;;5036903;28;20030;-57
2023/04/13 05:16:48;;;;;;;2.05;0.75;;;5.30;99.90;;;;;;5039615;28;20021;-58
2023/04/13 05:19:14;;;;;;;2.20;0.75;;;5.40;99.90;;;;;;5039698;28;20041;-58
2023/04/13 05:21:40;;;;;;;2.55;0.70;;;5.50;99.90;;;;;;5041187;28;20122;-58
2023/04/13 05:24:05;;;;;;;5.28;1.00;;;5.50;99.90;;;;;;5041049;28;20032;-58
2023/04/13 05:26:31;;;;;;;1.40;0.60;;;5.50;99.90;;;;;;5037606;28;20037;-57
2023/04/13 05:28:57;;;;;;;7.25;0.80;;;5.50;99.90;;;;;;5042241;28;20509;-58
2023/04/13 05:31:26;;;;;;;4.28;1.10;;;5.60;99.90;;;;;;5040894;28;20029;-57
2023/04/13 05:33:52;;;;;;;4.07;0.80;;;5.60;99.90;;;;;;5038226;28;20110;-57
2023/04/13 05:36:17;;;;;;;1.55;0.60;;;5.50;99.90;;;;;;5038949;28;20068;-57
2023/04/13 05:38:43;;;;;;;7.45;0.70;;;5.50;99.90;;;;;;5043089;28;20501;-57
2023/04/13 05:41:09;;;;;;;2.70;0.80;;;5.50;99.90;;;;;;5041041;28;20025;-56
2023/04/13 05:43:35;;;;;;;2.13;0.63;;;5.50;99.90;;;;;;5044256;28;20017;-57
2023/04/13 05:46:00;;;;;;;2.53;0.85;;;5.60;99.90;;;;;;5044006;28;20386;-57
2023/04/13 05:48:26;;;;;;;2.00;0.70;;;5.60;99.90;;;;;;5039175;28;20390;-56
2023/04/13 05:50:58;;;;;;;3.65;0.80;;;5.50;99.90;;;;;;5041011;28;20049;-57
2023/04/13 05:53:24;;;;;;;1.13;0.50;;;5.50;99.90;;;;;;5041374;28;20029;-57
2023/04/13 05:55:51;;;;;;;7.35;2.45;;;5.50;99.90;;;;;;5043148;28;20029;-55
2023/04/13 05:58:20;;;;;;;2.03;0.68;;;5.50;99.90;;;;;;5042421;28;20036;-57
2023/04/13 06:00:46;;;;;;;1.73;0.68;;;5.50;99.90;;;;;;5041945;28;20099;-58
2023/04/13 06:03:14;;;;;;;1.52;0.60;;;5.40;99.90;;;;;;5044487;28;20490;-56
2023/04/13 06:05:40;;;;;;;2.00;0.70;;;5.40;99.90;;;;;;5054781;28;20104;-57
2023/04/13 06:08:09;;;;;;;1.55;0.77;;;5.30;99.90;;;;;;5064043;28;20016;-56
2023/04/13 06:10:35;;;;;;;2.13;0.77;;;5.20;99.90;;;;;;5062414;28;20032;-58
2023/04/13 06:13:01;;;;;;;3.42;0.80;;;5.20;99.90;;;;;;5062845;28;20039;-56
2023/04/13 06:15:26;;;;;;;2.03;0.60;;;5.30;99.90;;;;;;5060272;28;20033;-56
2023/04/13 06:17:52;;;;;;;2.58;0.80;;;5.40;99.90;;;;;;5068855;28;20025;-58
2023/04/13 06:20:19;;;;;;;3.33;0.82;;;5.50;99.90;;;;;;5058552;28;20784;-57
2023/04/13 06:22:45;;;;;;;4.90;0.82;;;5.60;99.90;;;;;;5063860;28;20039;-59
2023/04/13 06:25:12;;;;;;;2.72;1.00;;;5.80;99.90;;;;;;5062672;28;20032;-56
2023/04/13 06:27:38;;;;;;;2.78;0.93;;;5.90;99.90;;;;;;5062028;28;20119;-57
2023/04/13 06:30:05;;;;;;;1.55;0.80;;;6.10;99.90;;;;;;5061417;28;20511;-56
2023/04/13 06:32:31;;;;;;;3.08;0.73;;;6.20;99.90;;;;;;5060896;28;20039;-58
2023/04/13 06:34:57;;;;;;;2.33;0.60;;;6.30;99.90;;;;;;5060600;28;20106;-56
2023/04/13 06:37:23;;;;;;;2.95;0.73;;;6.40;99.90;;;;;;5063251;28;20028;-57
2023/04/13 06:39:48;;;;;;;4.18;0.88;;;6.40;99.90;;;;;;5062161;28;20024;-56
2023/04/13 06:42:15;;;;;;;4.82;0.80;;;6.50;99.90;;;;;;5058378;28;20032;-57
2023/04/13 06:44:41;;;;;;;0.63;0.43;;;6.60;99.90;;;;;;5064936;28;20043;-57
2023/04/13 06:47:07;;;;;;;2.72;0.75;;;6.70;99.90;;;;;;5057548;28;20035;-58
2023/04/13 06:49:33;;;;;;;5.32;1.00;;;6.80;99.90;;;;;;5059032;28;20033;-56
2023/04/13 06:51:58;;;;;;;1.15;0.60;;;7.00;99.90;;;;;;5065328;28;20024;-55
2023/04/13 06:54:24;;;;;;;2.25;0.60;;;7.20;99.90;;;;;;5060193;28;20029;-57
2023/04/13 06:56:50;;;;;;;3.70;0.90;;;7.20;99.90;;;;;;5060947;28;20490;-58
2023/04/13 06:59:16;;;;;;;1.50;0.50;;;7.30;99.90;;;;;;5060894;28;20033;-58
2023/04/13 07:01:41;;;;;;;2.08;0.90;;;7.30;99.90;;;;;;5054429;28;20033;-56
2023/04/13 07:04:07;;;;;;;1.50;0.60;;;7.20;99.90;;;;;;5064586;28;20035;-57
2023/04/13 07:06:33;;;;;;;1.67;0.80;;;7.20;99.90;;;;;;5057602;28;20442;-57
2023/04/13 07:08:59;;;;;;;2.38;0.95;;;7.20;99.90;;;;;;5061141;28;20171;-57
2023/04/13 07:11:25;;;;;;;2.30;0.80;;;7.20;99.90;;;;;;5063305;28;20136;-58
2023/04/13 07:13:51;;;;;;;4.15;0.68;;;7.30;99.90;;;;;;5059317;28;20631;-58
2023/04/13 07:16:17;;;;;;;2.15;0.60;;;7.40;99.90;;;;;;5060026;28;20037;-58
2023/04/13 07:18:42;;;;;;;1.45;0.70;;;7.50;99.90;;;;;;5060123;28;20506;-57
2023/04/13 07:21:08;;;;;;;1.42;0.70;;;7.60;99.90;;;;;;5061591;28;20540;-57
2023/04/13 07:23:34;;;;;;;4.00;0.75;;;7.70;99.90;;;;;;5060646;28;20033;-58
2023/04/13 07:26:00;;;;;;;2.83;0.75;;;8.00;99.90;;;;;;5061358;28;20033;-58
2023/04/13 07:28:26;;;;;;;4.85;0.80;;;8.10;99.90;;;;;;5059188;28;20025;-57
2023/04/13 07:30:52;;;;;;;2.40;0.70;;;8.30;99.90;;;;;;5060858;28;20029;-57
2023/04/13 07:33:17;;;;;;;2.30;0.70;;;8.60;99.90;;;;;;5062072;28;20041;-56
2023/04/13 07:35:43;;;;;;;1.42;0.70;;;9.00;99.90;;;;;;5058879;28;20512;-57
2023/04/13 07:38:08;;;;;;;3.10;0.63;;;9.10;99.90;;;;;;5061899;28;20037;-57
2023/04/13 07:40:34;;;;;;;2.83;0.70;;;9.20;99.90;;;;;;5058636;28;20028;-58
2023/04/13 07:43:00;;;;;;;3.08;0.98;;;9.20;99.90;;;;;;5065570;28;20036;-57
2023/04/13 07:45:30;;;;;;;1.95;0.50;;;9.10;99.90;;;;;;5062779;28;20401;-56
2023/04/13 07:47:56;;;;;;;3.05;0.70;;;9.10;99.90;;;;;;5058453;28;20036;-57
2023/04/13 07:50:22;;;;;;;1.08;0.45;;;9.10;99.90;;;;;;5063636;28;20029;-57
2023/04/13 07:52:48;;;;;;;4.88;0.60;;;8.90;99.90;;;;;;5059200;28;20120;-56
2023/04/13 07:55:13;;;;;;;3.17;0.50;;;8.90;99.90;;;;;;5062726;28;20474;-57
2023/04/13 07:57:39;;;;;;;4.68;1.50;;;9.00;99.90;;;;;;5062182;28;20036;-57
2023/04/13 08:00:05;;;;;;;2.90;0.70;;;9.20;99.90;;;;;;5063831;28;20189;-58
2023/04/13 08:02:32;;;;;;;2.58;0.52;;;9.30;99.90;;;;;;5058906;28;20408;-57
2023/04/13 08:04:58;;;;;;;3.00;0.73;;;9.40;99.90;;;;;;5058262;28;20080;-57
2023/04/13 08:07:24;;;;;;;2.90;0.70;;;9.50;99.90;;;;;;5060306;28;20434;-57
2023/04/13 08:09:51;;;;;;;2.67;0.80;;;9.60;99.90;;;;;;5061405;28;20035;-58
2023/04/13 08:12:17;;;;;;;5.28;0.80;;;9.80;99.90;;;;;;5060976;28;20080;-56
2023/04/13 08:14:43;;;;;;;6.78;0.65;;;9.90;99.90;;;;;;5061264;28;20052;-57
2023/04/13 08:17:10;;;;;;;2.85;0.70;;;10.10;99.90;;;;;;5059928;28;20113;-57
2023/04/13 08:19:35;;;;;;;2.72;0.60;;;10.30;99.90;;;;;;5060278;28;20112;-57
2023/04/13 08:22:01;;;;;;;1.33;0.70;;;10.20;99.90;;;;;;5062893;28;20433;-56
2023/04/13 08:24:28;;;;;;;5.43;0.85;;;10.10;99.90;;;;;;5061324;28;20035;-58
2023/04/13 08:26:56;;;;;;;3.60;0.65;;;9.90;99.90;;;;;;5058098;28;20085;-58
2023/04/13 08:29:22;;;;;;;6.28;0.85;;;9.80;99.90;;;;;;5059166;28;20033;-58
2023/04/13 08:31:48;;;;;;;2.35;0.85;;;9.50;99.90;;;;;;5059091;28;20021;-58
2023/04/13 08:34:15;;;;;;;6.85;0.80;;;9.30;99.90;;;;;;5058315;28;20024;-57
2023/04/13 08:36:41;;;;;;;4.47;0.68;;;9.20;99.90;;;;;;5060966;28;20024;-58
2023/04/13 08:39:09;;;;;;;2.88;0.90;;;9.20;99.90;;;;;;5058688;28;20500;-57
2023/04/13 08:41:39;;;;;;;4.95;0.80;;;9.30;99.90;;;;;;5062803;28;20067;-57
2023/04/13 08:44:07;;;;;;;1.35;0.70;;;9.50;99.90;;;;;;5060712;28;20029;-56
2023/04/13 08:46:33;;;;;;;2.65;0.70;;;9.60;99.90;;;;;;5059445;28;20098;-58
2023/04/13 08:49:00;;;;;;;2.47;0.70;;;9.70;99.90;;;;;;5059005;28;20507;-57
2023/04/13 08:51:28;;;;;;;2.55;0.70;;;9.80;99.90;;;;;;5059445;28;20086;-58
2023/04/13 08:53:57;;;;;;;5.07;1.02;;;9.90;99.90;;;;;;5058273;28;20424;-59
2023/04/13 08:56:24;;;;;;;2.08;0.98;;;9.90;99.90;;;;;;5059693;28;20027;-59
2023/04/13 08:58:55;;;;;;;1.13;0.55;;;9.80;99.90;;;;;;5058047;28;20803;-57
2023/04/13 09:01:22;;;;;;;10.45;1.35;;;9.80;99.90;;;;;;5056979;28;20087;-56
2023/04/13 09:03:53;;;;;;;4.13;1.15;;;9.80;99.90;;;;;;5061347;28;20025;-58
2023/04/13 09:06:34;;;;;;;2.25;0.60;;;9.80;99.90;;;;;;5057875;28;20044;-56
2023/04/13 09:09:04;;;;;;;2.95;1.00;;;9.80;99.90;;;;;;5058947;28;20515;-58
2023/04/13 09:11:30;;;;;;;3.58;0.82;;;9.70;99.90;;;;;;5062559;28;20133;-57
2023/04/13 09:13:56;;;;;;;3.50;1.23;;;9.70;99.90;;;;;;5063929;28;20033;-57
2023/04/13 09:16:22;;;;;;;4.57;0.75;;;9.70;99.90;;;;;;5060605;28;20029;-57
2023/04/13 09:18:55;;;;;;;2.78;0.70;;;9.60;99.90;;;;;;5057923;28;20051;-56
2023/04/13 09:21:23;;;;;;;3.88;0.90;;;9.60;99.90;;;;;;5062705;28;20044;-57
2023/04/13 09:23:56;;;;;;;6.80;1.13;;;9.50;99.90;;;;;;5063082;28;20172;-56
2023/04/13 09:26:22;;;;;;;1.75;0.57;;;9.60;99.90;;;;;;5059333;28;20049;-60
2023/04/13 09:28:50;;;;;;;4.25;1.00;;;9.60;99.70;;;;;;5064196;28;20052;-57
2023/04/13 09:31:16;;;;;;;2.38;1.00;;;9.70;99.90;;;;;;5061776;28;20029;-59
2023/04/13 09:33:50;;;;;;;8.25;1.10;;;9.80;99.90;;;;;;5065228;28;20376;-57
2023/04/13 09:36:19;;;;;;;4.20;0.70;;;9.70;99.90;;;;;;5062449;28;20037;-58
2023/04/13 09:38:50;;;;;;;5.03;1.05;;;9.70;99.90;;;;;;5063165;28;20390;-57
2023/04/13 09:41:16;;;;;;;1.45;0.80;;;10.00;99.90;;;;;;5060706;28;20056;-58
2023/04/13 09:43:41;;;;;;;2.72;0.70;;;10.10;99.30;;;;;;5062391;28;20477;-58
2023/04/13 09:46:13;;;;;;;0.98;0.80;;;10.10;98.60;;;;;;5063790;28;20032;-57
2023/04/13 09:48:39;;;;;;;3.42;0.68;;;10.10;99.90;;;;;;5064495;28;20021;-57
2023/04/13 09:51:07;;;;;;;1.27;0.60;;;10.10;99.90;;;;;;5063179;28;20109;-56
2023/04/13 09:53:41;;;;;;;2.97;0.82;;;10.20;99.40;;;;;;5062090;28;20036;-58
2023/04/13 09:56:08;;;;;;;3.65;0.82;;;10.40;98.40;;;;;;5068922;28;20032;-57
2023/04/13 09:58:42;;;;;;;7.90;1.05;;;10.40;98.70;;;;;;5058779;28;20101;-56
2023/04/13 10:01:08;;;;;;;2.90;0.88;;;10.40;97.20;;;;;;5062959;28;20028;-57
2023/04/13 10:03:35;;;;;;;5.10;0.80;;;10.40;95.90;;;;;;5059946;28;20067;-57
2023/04/13 10:06:03;;;;;;;4.15;0.90;;;10.60;96.70;;;;;;5064878;28;20020;-58
2023/04/13 10:08:29;;;;;;;4.53;0.90;;;11.10;98.20;;;;;;5064119;28;20029;-59
2023/04/13 10:10:56;;;;;;;1.70;0.80;;;11.20;96.30;;;;;;5060380;28;20044;-59
2023/04/13 10:13:27;;;;;;;1.92;0.77;;;11.00;95.00;;;;;;5061215;28;20116;-57
2023/04/13 10:16:02;;;;;;;2.95;0.68;;;10.70;94.10;;;;;;5060717;28;20075;-56
2023/04/13 10:18:56;;;;;;;3.25;1.00;;;10.30;97.80;;;;;;5062083;28;20523;-57
2023/04/13 10:21:25;;;;;;;4.28;0.90;;;10.00;97.30;;;;;;5062103;28;20082;-57
2023/04/13 10:23:51;;;;;;;2.38;1.10;;;9.70;99.60;;;;;;5058223;28;20136;-57
2023/04/13 10:26:17;;;;;;;3.58;1.20;;;9.60;97.40;;;;;;5060568;28;20075;-57
2023/04/13 10:28:44;;;;;;;5.15;1.58;;;9.50;99.40;;;;;;5064354;28;20413;-57
2023/04/13 10:31:10;;;;;;;3.95;0.90;;;9.50;98.50;;;;;;5063017;28;20119;-57
2023/04/13 10:33:51;;;;;;;2.08;0.68;;;9.50;98.40;;;;;;5061391;28;21399;-57
2023/04/13 10:36:17;;;;;;;5.18;0.93;;;9.60;99.90;;;;;;5060785;28;20174;-58
2023/04/13 10:38:44;;;;;;;3.95;1.00;;;9.70;99.90;;;;;;5062928;28;20108;-57
2023/04/13 10:41:09;;;;;;;3.95;1.10;;;9.80;99.90;;;;;;5060645;28;20478;-57
2023/04/13 10:43:35;;;;;;;9.38;1.25;;;10.00;99.90;;;;;;5060450;28;20107;-57
2023/04/13 10:46:08;;;;;;;2.83;0.90;;;10.10;99.90;;;;;;5062385;28;20385;-58
2023/04/13 10:48:35;;;;;;;2.85;0.98;;;10.20;96.50;;;;;;5060912;28;20028;-57
2023/04/13 10:51:01;;;;;;;2.72;0.90;;;10.20;96.60;;;;;;5059063;28;20037;-55
2023/04/13 10:53:29;;;;;;;2.70;0.73;;;10.10;97.80;;;;;;5059435;28;20024;-58
2023/04/13 10:55:56;;;;;;;2.40;0.90;;;10.00;98.80;;;;;;5060483;28;20078;-58
2023/04/13 10:58:22;;;;;;;4.25;1.33;;;9.80;98.00;;;;;;5061418;28;20028;-58
2023/04/13 11:00:49;;;;;;;3.72;1.00;;;9.70;96.00;;;;;;5059074;28;20047;-58
2023/04/13 11:03:17;;;;;;;4.53;1.73;;;9.60;96.70;;;;;;5061280;28;20144;-58
2023/04/13 11:05:43;;;;;;;3.22;1.20;;;9.60;96.60;;;;;;5059332;28;20394;-57
2023/04/13 11:08:17;;;;;;;3.10;1.15;;;9.60;97.60;;;;;;5061074;28;20037;-56
2023/04/13 11:10:50;;;;;;;3.75;0.85;;;9.80;97.50;;;;;;5063937;28;20516;-56
2023/04/13 11:13:16;;;;;;;7.55;1.10;;;10.00;98.70;;;;;;5061476;28;20409;-58
2023/04/13 11:15:41;;;;;;;4.65;1.75;;;10.30;95.80;;;;;;5058602;28;20035;-57
2023/04/13 11:18:07;;;;;;;5.13;0.90;;;10.30;95.00;;;;;;5058052;28;20040;-57
2023/04/13 11:20:37;;;;;;;4.57;1.00;;;10.20;94.50;;;;;;5059780;28;20704;-57
2023/04/13 11:23:05;;;;;;;4.28;1.30;;;10.10;94.80;;;;;;5062130;28;20103;-57
2023/04/13 11:25:34;;;;;;;3.65;1.10;;;9.90;95.90;;;;;;5062282;28;20021;-58
2023/04/13 11:28:02;;;;;;;4.40;1.02;;;9.80;96.60;;;;;;5061306;28;20013;-57
2023/04/13 11:30:29;;;;;;;3.60;0.90;;;9.80;98.30;;;;;;5058085;28;20836;-57
2023/04/13 11:32:58;;;;;;;11.90;1.27;;;9.90;98.20;;;;;;5058470;28;20025;-58
2023/04/13 11:35:24;;;;;;;2.03;0.90;;;10.10;99.00;;;;;;5061690;28;20032;-57
2023/04/13 11:37:52;;;;;;;4.60;0.80;;;10.30;99.90;;;;;;5060593;28;20440;-56
2023/04/13 11:40:26;;;;;;;3.42;1.02;;;10.40;96.90;;;;;;5061856;28;20496;-57
2023/04/13 11:42:57;;;;;;;5.72;1.10;;;10.60;99.90;;;;;;5060671;28;20052;-58
2023/04/13 11:45:25;;;;;;;;;;;10.70;99.90;;;;;;5059994;28;20459;-58
2023/04/13 11:47:52;;;;;;;3.33;0.90;;;10.60;99.90;;;;;;5061271;28;20017;-57
2023/04/13 11:50:19;;;;;;;2.72;1.10;;;10.70;99.90;;;;;;5060345;28;20033;-58
2023/04/13 11:52:46;;;;;;;3.47;0.90;;;10.70;99.90;;;;;;5057128;28;20484;-57
2023/04/13 11:55:14;;;;;;;4.75;1.05;;;10.80;99.90;;;;;;5057826;28;20044;-57
2023/04/13 11:57:40;;;;;;;6.00;2.03;;;10.90;99.90;;;;;;5061096;28;20801;-57
2023/04/13 12:00:22;;;;;;;4.00;1.17;;;11.00;99.90;;;;;;5061021;28;20033;-58
2023/04/13 12:02:50;;;;;;;8.52;1.25;;;11.00;99.90;;;;;;5059379;28;20116;-57
2023/04/13 12:05:24;;;;;;;5.97;1.10;;;11.10;99.90;;;;;;5059139;28;20032;-56
2023/04/13 12:07:54;;;;;;;5.07;0.80;;;11.10;99.90;;;;;;5057658;28;20056;-57
2023/04/13 12:10:28;;;;;;;4.65;1.70;;;11.30;96.60;;;;;;5058495;28;20378;-58
2023/04/13 12:13:12;;;;;;;4.35;1.30;;;11.60;98.50;;;;;;5059496;28;20036;-57
2023/04/13 12:15:43;;;;;;;5.68;0.95;;;12.10;97.50;;;;;;5056772;28;20516;-57
2023/04/13 12:18:11;;;;;;;;;;;12.30;96.00;;;;;;5059908;28;20700;-57
2023/04/13 12:20:38;;;;;;;2.90;1.38;;;12.30;97.50;;;;;;5056331;28;19924;-58
2023/04/13 12:23:19;;;;;;;5.55;2.03;;;12.30;99.20;;;;;;5060360;28;20102;-57
2023/04/13 12:25:57;;;;;;;2.00;1.15;;;12.40;95.00;;;;;;5060833;28;20110;-57
2023/04/13 12:28:29;;;;;;;3.10;0.90;;;12.30;91.30;;;;;;5056134;28;20101;-58
2023/04/13 12:31:08;;;;;;;3.85;1.20;;;12.30;92.00;;;;;;5059241;28;20556;-58
2023/04/13 12:33:35;;;;;;;8.65;2.05;;;12.20;94.40;;;;;;5059271;28;20025;-58
2023/04/13 12:36:01;;;;;;;3.67;0.93;;;12.00;99.50;;;;;;5058478;28;20025;-57
2023/04/13 12:38:27;;;;;;;5.18;1.25;;;11.80;98.80;;;;;;5060933;28;20460;-56
2023/04/13 12:40:59;;;;;;;5.40;1.60;;;11.70;99.90;;;;;;5060804;28;20063;-56
2023/04/13 12:43:26;;;;;;;4.53;1.20;;;11.40;99.80;;;;;;5063185;28;20024;-57
2023/04/13 12:45:52;;;;;;;5.40;0.90;;;11.20;99.90;;;;;;5043221;28;20029;-58
2023/04/13 12:48:18;;;;;;;4.65;1.67;;;11.00;99.10;;;;;;5057334;28;20029;-58
2023/04/13 12:50:45;;;;;;;3.03;0.90;;;11.00;99.90;;;;;;5058786;28;20039;-56
2023/04/13 12:53:13;;;;;;;4.88;1.02;;;11.00;99.90;;;;;;5060473;28;20029;-56
2023/04/13 12:55:39;;;;;;;2.85;0.90;;;11.20;99.90;;;;;;5059923;28;20020;-57
2023/04/13 12:58:05;;;;;;;2.33;0.90;;;11.30;99.90;;;;;;5060324;28;20027;-57